In Rescue
 
Open Full Screen Window  High Contrast Mode
Wind Gusting 00 knots
09
November 29, 2022 10:19 AM EST
Weather Information
Wind Direction
  150 °
Wind Speed
  09 kt (10 mph)
Wind Gust
  00 kt (0 mph)
Altimeter
29.86 in
Visibility
10 SM
Temperature
06° C
43° F
Dewpoint
02° C
36° F
Humidity
76%
Sky Condition
Clear
VFR

METAR KSJX 291519Z AUTO 15009KT 10SM CLR 06/02 A2986 RMK AO2 T00560020

FAA Disclaimer: The data displayed is for advisory purposes only and is not to be used for flight planning or operations.